createdAt,value
2018-12-15T00:00:07.102Z,99.99
2018-12-15T00:01:07.084Z,99.99
2018-12-15T00:02:07.072Z,99.99
2018-12-15T00:03:07.061Z,99.99
2018-12-15T00:04:07.043Z,99.99
2018-12-15T00:05:07.038Z,99.99
2018-12-15T00:06:07.030Z,99.99
2018-12-15T00:07:07.007Z,99.99
2018-12-15T00:08:06.998Z,99.99
2018-12-15T00:09:06.983Z,99.99
2018-12-15T00:10:06.969Z,99.99
2018-12-15T00:11:06.962Z,99.99
2018-12-15T00:12:06.958Z,99.99
2018-12-15T00:13:06.937Z,99.99
2018-12-15T00:14:06.921Z,99.99
2018-12-15T00:15:06.911Z,99.99
2018-12-15T00:16:06.898Z,99.99
2018-12-15T00:17:06.888Z,99.99
2018-12-15T00:18:06.869Z,99.99
2018-12-15T00:19:06.861Z,99.99
2018-12-15T00:20:06.848Z,99.99
2018-12-15T00:21:06.837Z,99.99
2018-12-15T00:22:07.325Z,99.99
2018-12-15T00:23:06.813Z,99.99
2018-12-15T00:24:06.798Z,99.99
2018-12-15T00:25:06.785Z,99.99
2018-12-15T00:26:06.782Z,99.99
2018-12-15T00:27:06.762Z,99.99
2018-12-15T00:28:06.750Z,99.99
2018-12-15T00:29:06.738Z,99.99
2018-12-15T00:30:06.720Z,99.99
2018-12-15T00:31:06.717Z,99.99
2018-12-15T00:32:06.699Z,99.99
2018-12-15T00:33:06.688Z,99.99
2018-12-15T00:34:06.675Z,99.99
2018-12-15T00:35:06.665Z,99.99
2018-12-15T00:36:06.647Z,99.99
2018-12-15T00:37:06.634Z,99.99
2018-12-15T00:38:06.625Z,99.99
2018-12-15T00:39:06.614Z,99.99
2018-12-15T00:40:06.602Z,99.99
2018-12-15T00:41:06.589Z,99.99
2018-12-15T00:42:06.575Z,99.99
2018-12-15T00:43:06.568Z,99.99
2018-12-15T00:44:06.550Z,99.99
2018-12-15T00:45:06.538Z,99.99
2018-12-15T00:46:06.543Z,99.99
2018-12-15T00:47:10.716Z,99.99
2018-12-15T00:48:06.504Z,99.99
2018-12-15T00:49:06.491Z,99.99
2018-12-15T00:50:06.479Z,99.99
2018-12-15T00:51:06.464Z,99.99
2018-12-15T00:52:06.450Z,99.99
2018-12-15T00:53:06.440Z,99.99
2018-12-15T00:54:06.428Z,99.99
2018-12-15T00:55:06.418Z,99.99
2018-12-15T00:56:06.402Z,99.99
2018-12-15T00:57:06.389Z,99.99
2018-12-15T00:58:06.379Z,99.99
2018-12-15T00:59:06.366Z,99.99
2018-12-15T01:00:06.352Z,99.99
2018-12-15T01:01:06.338Z,99.99
2018-12-15T01:02:06.325Z,99.99
2018-12-15T01:03:06.318Z,99.99
2018-12-15T01:04:06.301Z,99.99
2018-12-15T01:05:06.290Z,99.99
2018-12-15T01:06:06.276Z,99.99
2018-12-15T01:07:06.262Z,99.99
2018-12-15T01:08:06.253Z,99.99
2018-12-15T01:09:06.237Z,99.99
2018-12-15T01:10:06.233Z,99.99
2018-12-15T01:11:06.220Z,99.99
2018-12-15T01:12:06.200Z,99.99
2018-12-15T01:13:06.189Z,99.99
2018-12-15T01:14:06.182Z,99.99
2018-12-15T01:15:06.167Z,99.99
2018-12-15T01:16:06.154Z,99.99
2018-12-15T01:17:06.146Z,99.99
2018-12-15T01:18:06.135Z,99.99
2018-12-15T01:19:06.116Z,99.99
2018-12-15T01:20:06.105Z,99.99
2018-12-15T01:21:06.087Z,99.99
2018-12-15T01:22:06.088Z,99.99
2018-12-15T01:23:06.069Z,99.99
2018-12-15T01:24:06.054Z,99.99
2018-12-15T01:25:06.041Z,99.99
2018-12-15T01:26:06.038Z,99.99
2018-12-15T01:27:06.018Z,99.99
2018-12-15T01:28:06.005Z,99.99
2018-12-15T01:29:05.994Z,99.99
2018-12-15T01:30:05.979Z,99.99
2018-12-15T01:31:05.966Z,99.99
2018-12-15T01:32:05.958Z,99.99
2018-12-15T01:33:05.943Z,99.99
2018-12-15T01:34:05.931Z,99.99
2018-12-15T01:35:05.918Z,99.99
2018-12-15T01:36:05.908Z,99.99
2018-12-15T01:37:05.894Z,99.99
2018-12-15T01:38:05.889Z,99.99
2018-12-15T01:39:05.869Z,99.99
2018-12-15T01:40:05.855Z,99.99
2018-12-15T01:41:05.844Z,99.99
2018-12-15T01:42:05.830Z,99.99
2018-12-15T01:43:05.833Z,99.99
2018-12-15T01:44:05.808Z,99.99
2018-12-15T01:45:05.799Z,99.99
2018-12-15T01:46:05.780Z,99.99
2018-12-15T01:47:05.768Z,99.99
2018-12-15T01:48:05.758Z,99.99
2018-12-15T01:49:05.742Z,99.99
2018-12-15T01:50:05.731Z,99.99
2018-12-15T01:51:05.718Z,99.99
2018-12-15T01:52:05.711Z,99.99
2018-12-15T01:53:05.693Z,99.99
2018-12-15T01:54:05.686Z,99.99
2018-12-15T01:55:06.341Z,99.99
2018-12-15T01:56:05.660Z,99.99
2018-12-15T01:57:05.648Z,99.99
2018-12-15T01:58:05.633Z,99.99
2018-12-15T01:59:05.628Z,99.99
2018-12-15T02:00:05.611Z,99.99
2018-12-15T02:01:05.601Z,99.99
2018-12-15T02:02:05.589Z,99.99
2018-12-15T02:03:05.578Z,99.99
2018-12-15T02:04:05.558Z,99.99
2018-12-15T02:05:05.556Z,99.99
2018-12-15T02:06:05.537Z,99.99
2018-12-15T02:07:05.525Z,99.99
2018-12-15T02:08:05.510Z,99.99
2018-12-15T02:09:05.505Z,99.99
2018-12-15T02:10:05.485Z,99.99
2018-12-15T02:11:05.471Z,99.99
2018-12-15T02:12:05.466Z,99.99
2018-12-15T02:13:05.451Z,99.99
2018-12-15T02:14:05.441Z,99.99
2018-12-15T02:15:05.426Z,99.99
2018-12-15T02:16:05.414Z,99.99
2018-12-15T02:17:05.403Z,99.99
2018-12-15T02:18:05.387Z,99.99
2018-12-15T02:19:05.374Z,99.99
2018-12-15T02:20:05.367Z,99.99
2018-12-15T02:21:05.358Z,99.99
2018-12-15T02:22:05.344Z,99.99
2018-12-15T02:23:05.325Z,99.99
2018-12-15T02:24:05.314Z,99.99
2018-12-15T02:25:05.300Z,99.99
2018-12-15T02:26:05.287Z,99.99
2018-12-15T02:27:05.277Z,99.99
2018-12-15T02:28:05.265Z,99.99
2018-12-15T02:29:05.251Z,99.99
2018-12-15T02:30:05.247Z,99.99
2018-12-15T02:31:05.228Z,99.99
2018-12-15T02:32:05.226Z,99.99
2018-12-15T02:33:05.201Z,99.99
2018-12-15T02:34:05.195Z,99.99
2018-12-15T02:35:05.181Z,99.99
2018-12-15T02:36:05.166Z,99.99
2018-12-15T02:37:05.156Z,99.99
2018-12-15T02:38:05.140Z,99.99
2018-12-15T02:39:05.136Z,99.99
2018-12-15T02:40:05.117Z,99.99
2018-12-15T02:41:05.103Z,99.99
2018-12-15T02:42:05.093Z,99.99
2018-12-15T02:43:05.082Z,99.99
2018-12-15T02:44:05.070Z,99.99
2018-12-15T02:45:05.055Z,99.99
2018-12-15T02:46:05.049Z,99.99
2018-12-15T02:47:05.029Z,99.99
2018-12-15T02:48:05.018Z,99.99
2018-12-15T02:49:05.007Z,99.99
2018-12-15T02:50:04.994Z,99.99
2018-12-15T02:51:04.998Z,99.99
2018-12-15T02:52:04.973Z,99.99
2018-12-15T02:53:04.973Z,99.99
2018-12-15T02:54:04.941Z,99.99
2018-12-15T02:55:04.937Z,99.99
2018-12-15T02:56:04.922Z,99.99
2018-12-15T02:57:04.928Z,99.99
2018-12-15T02:58:04.899Z,99.76
2018-12-15T02:59:04.884Z,99.95
2018-12-15T03:00:04.869Z,99.99
2018-12-15T03:01:04.860Z,99.85
2018-12-15T03:02:04.844Z,99.95
2018-12-15T03:03:04.834Z,99.99
2018-12-15T03:04:04.827Z,99.99
2018-12-15T03:05:04.810Z,99.99
2018-12-15T03:06:04.792Z,99.99
2018-12-15T03:07:04.782Z,99.99
2018-12-15T03:08:04.775Z,99.09
2018-12-15T03:09:04.758Z,99.09
2018-12-15T03:10:04.747Z,99.19
2018-12-15T03:11:04.739Z,99.38
2018-12-15T03:12:04.726Z,98.81
2018-12-15T03:13:04.706Z,99.28
2018-12-15T03:14:04.698Z,99.09
2018-12-15T03:15:04.687Z,99.99
2018-12-15T03:16:04.724Z,99.99
2018-12-15T03:17:04.658Z,99.95
2018-12-15T03:18:04.647Z,99.99
2018-12-15T03:19:04.645Z,99.99
2018-12-15T03:20:04.624Z,99.95
2018-12-15T03:21:04.612Z,99.99
2018-12-15T03:22:04.599Z,99.76
2018-12-15T03:23:04.589Z,99.99
2018-12-15T03:24:04.570Z,99.66
2018-12-15T03:25:04.564Z,99.66
2018-12-15T03:26:04.549Z,99.28
2018-12-15T03:27:04.535Z,99.00
2018-12-15T03:28:04.523Z,99.00
2018-12-15T03:29:04.516Z,99.38
2018-12-15T03:30:04.502Z,99.28
2018-12-15T03:31:04.487Z,99.99
2018-12-15T03:32:04.478Z,99.09
2018-12-15T03:33:04.462Z,99.38
2018-12-15T03:34:04.501Z,99.47
2018-12-15T03:35:04.439Z,99.09
2018-12-15T03:36:04.422Z,98.81
2018-12-15T03:37:04.412Z,97.11
2018-12-15T03:38:04.404Z,97.01
2018-12-15T03:39:04.396Z,97.01
2018-12-15T03:40:04.377Z,97.49
2018-12-15T03:41:04.371Z,97.39
2018-12-15T03:42:04.351Z,97.86
2018-12-15T03:43:04.345Z,97.67
2018-12-15T03:44:04.344Z,97.96
2018-12-15T03:45:04.316Z,97.67
2018-12-15T03:46:04.297Z,98.05
2018-12-15T03:47:04.290Z,97.39
2018-12-15T03:48:04.277Z,98.33
2018-12-15T03:49:04.265Z,98.62
2018-12-15T03:50:04.255Z,98.62
2018-12-15T03:51:04.242Z,98.90
2018-12-15T03:52:04.233Z,98.52
2018-12-15T03:53:04.216Z,98.81
2018-12-15T03:54:04.203Z,98.71
2018-12-15T03:55:04.195Z,98.81
2018-12-15T03:56:04.185Z,98.90
2018-12-15T03:57:04.166Z,99.00
2018-12-15T03:58:04.156Z,98.24
2018-12-15T03:59:04.145Z,98.43
2018-12-15T04:00:04.134Z,98.62
2018-12-15T04:01:04.118Z,98.62
2018-12-15T04:02:04.106Z,98.62
2018-12-15T04:03:04.098Z,98.81
2018-12-15T04:04:04.084Z,99.00
2018-12-15T04:05:04.072Z,98.43
2018-12-15T04:06:04.062Z,99.00
2018-12-15T04:07:04.049Z,98.81
2018-12-15T04:08:04.034Z,98.90
2018-12-15T04:09:04.024Z,98.81
2018-12-15T04:10:04.014Z,98.52
2018-12-15T04:11:03.999Z,98.81
2018-12-15T04:12:03.989Z,98.24
2018-12-15T04:13:03.977Z,98.24
2018-12-15T04:14:03.963Z,98.43
2018-12-15T04:15:03.951Z,98.81
2018-12-15T04:16:03.939Z,98.62
2018-12-15T04:17:03.929Z,98.81
2018-12-15T04:18:04.060Z,98.14
2018-12-15T04:19:03.904Z,98.14
2018-12-15T04:20:03.895Z,97.77
2018-12-15T04:21:03.894Z,98.05
2018-12-15T04:22:03.865Z,97.96
2018-12-15T04:23:03.861Z,97.67
2018-12-15T04:24:03.842Z,98.05
2018-12-15T04:25:03.833Z,98.90
2018-12-15T04:26:03.817Z,98.81
2018-12-15T04:27:03.807Z,98.05
2018-12-15T04:28:03.800Z,97.86
2018-12-15T04:29:03.780Z,97.01
2018-12-15T04:30:03.770Z,98.24
2018-12-15T04:31:03.761Z,98.24
2018-12-15T04:32:03.749Z,97.96
2018-12-15T04:33:03.740Z,98.33
2018-12-15T04:34:03.729Z,98.33
2018-12-15T04:35:03.710Z,98.62
2018-12-15T04:36:03.700Z,97.77
2018-12-15T04:37:03.698Z,97.58
2018-12-15T04:38:03.672Z,98.90
2018-12-15T04:39:03.663Z,99.28
2018-12-15T04:40:03.652Z,99.28
2018-12-15T04:41:03.641Z,99.57
2018-12-15T04:42:03.626Z,99.99
2018-12-15T04:43:03.615Z,99.99
2018-12-15T04:44:03.599Z,99.99
2018-12-15T04:45:03.608Z,99.99
2018-12-15T04:46:03.581Z,99.99
2018-12-15T04:47:03.567Z,99.99
2018-12-15T04:48:10.811Z,99.99
2018-12-15T04:49:03.542Z,99.95
2018-12-15T04:50:03.539Z,99.76
2018-12-15T04:51:03.522Z,99.99
2018-12-15T04:52:03.508Z,99.99
2018-12-15T04:53:03.496Z,99.99
2018-12-15T04:54:03.489Z,99.99
2018-12-15T04:55:03.473Z,99.99
2018-12-15T04:56:03.464Z,99.99
2018-12-15T04:57:03.462Z,99.99
2018-12-15T04:58:03.440Z,99.19
2018-12-15T04:59:03.444Z,99.28
2018-12-15T05:00:03.420Z,99.19
2018-12-15T05:01:03.407Z,99.99
2018-12-15T05:02:03.393Z,99.99
2018-12-15T05:03:03.382Z,99.99
2018-12-15T05:04:03.369Z,99.99
2018-12-15T05:05:03.356Z,99.99
2018-12-15T05:06:03.345Z,99.99
2018-12-15T05:07:03.332Z,99.99
2018-12-15T05:08:03.323Z,99.99
2018-12-15T05:09:03.311Z,99.99
2018-12-15T05:10:03.302Z,99.99
2018-12-15T05:11:03.288Z,99.99
2018-12-15T05:12:03.274Z,99.99
2018-12-15T05:13:03.258Z,99.99
2018-12-15T05:14:03.252Z,99.99
2018-12-15T05:15:03.236Z,99.99
2018-12-15T05:16:03.224Z,99.99
2018-12-15T05:17:03.216Z,99.99
2018-12-15T05:18:03.203Z,99.99
2018-12-15T05:19:03.239Z,99.99
2018-12-15T05:20:03.177Z,99.99
2018-12-15T05:21:03.167Z,99.99
2018-12-15T05:22:03.154Z,99.99
2018-12-15T05:23:03.142Z,99.99
2018-12-15T05:24:03.131Z,99.99
2018-12-15T05:25:03.136Z,99.99
2018-12-15T05:26:03.105Z,99.99
2018-12-15T05:27:03.096Z,99.99
2018-12-15T05:28:03.087Z,99.99
2018-12-15T05:29:03.073Z,99.99
2018-12-15T05:30:03.059Z,99.99
2018-12-15T05:31:03.049Z,99.99
2018-12-15T05:32:03.036Z,99.99
2018-12-15T05:33:03.019Z,99.99
2018-12-15T05:34:03.011Z,99.99
2018-12-15T05:35:03.004Z,99.99
2018-12-15T05:36:02.986Z,99.99
2018-12-15T05:37:02.971Z,99.99
2018-12-15T05:38:02.962Z,99.99
2018-12-15T05:39:02.951Z,99.99
2018-12-15T05:40:02.939Z,99.99
2018-12-15T05:41:02.924Z,99.99
2018-12-15T05:42:02.920Z,99.99
2018-12-15T05:43:02.902Z,99.99
2018-12-15T05:44:02.903Z,99.99
2018-12-15T05:45:02.879Z,99.99
2018-12-15T05:46:02.867Z,99.99
2018-12-15T05:47:02.856Z,99.99
2018-12-15T05:48:02.845Z,99.99
2018-12-15T05:49:02.830Z,99.99
2018-12-15T05:50:02.826Z,99.99
2018-12-15T05:51:02.809Z,99.99
2018-12-15T05:52:02.796Z,99.99
2018-12-15T05:53:02.783Z,99.99
2018-12-15T05:54:02.767Z,99.99
2018-12-15T05:55:02.757Z,99.99
2018-12-15T05:56:02.746Z,99.99
2018-12-15T05:57:02.733Z,99.99
2018-12-15T05:58:02.725Z,99.99
2018-12-15T05:59:02.709Z,99.99
2018-12-15T06:00:02.701Z,99.99
2018-12-15T06:01:02.681Z,99.99
2018-12-15T06:02:02.669Z,99.99
2018-12-15T06:03:02.663Z,99.99
2018-12-15T06:04:02.649Z,99.99
2018-12-15T06:05:02.637Z,99.99
2018-12-15T06:06:02.626Z,99.99
2018-12-15T06:07:02.610Z,99.99
2018-12-15T06:08:02.600Z,99.99
2018-12-15T06:09:02.591Z,99.99
2018-12-15T06:10:02.576Z,99.99
2018-12-15T06:11:02.562Z,99.99
2018-12-15T06:12:02.553Z,99.99
2018-12-15T06:13:02.536Z,99.99
2018-12-15T06:14:02.527Z,99.99
2018-12-15T06:15:02.513Z,99.99
2018-12-15T06:16:02.498Z,99.99
2018-12-15T06:17:02.488Z,99.99
2018-12-15T06:18:02.477Z,99.99
2018-12-15T06:19:02.472Z,99.99
2018-12-15T06:20:02.452Z,99.99
2018-12-15T06:21:02.445Z,99.99
2018-12-15T06:22:02.427Z,99.99
2018-12-15T06:23:02.412Z,99.99
2018-12-15T06:24:02.413Z,99.99
2018-12-15T06:25:02.393Z,99.99
2018-12-15T06:26:02.377Z,99.99
2018-12-15T06:27:02.365Z,99.99
2018-12-15T06:28:02.354Z,99.99
2018-12-15T06:29:02.342Z,99.99
2018-12-15T06:30:02.327Z,99.99
2018-12-15T06:31:02.319Z,99.99
2018-12-15T06:32:02.307Z,99.99
2018-12-15T06:33:02.291Z,99.99
2018-12-15T06:34:02.280Z,99.99
2018-12-15T06:35:02.267Z,99.99
2018-12-15T06:36:02.253Z,99.99
2018-12-15T06:37:02.242Z,99.99
2018-12-15T06:38:02.232Z,99.99
2018-12-15T06:39:02.218Z,99.99
2018-12-15T06:40:02.207Z,99.99
2018-12-15T06:41:02.193Z,99.99
2018-12-15T06:42:02.179Z,99.99
2018-12-15T06:43:02.172Z,99.99
2018-12-15T06:44:02.154Z,99.99
2018-12-15T06:45:02.145Z,99.99
2018-12-15T06:46:02.133Z,99.99
2018-12-15T06:47:02.123Z,99.99
2018-12-15T06:48:02.109Z,99.99
2018-12-15T06:49:02.094Z,99.99
2018-12-15T06:50:02.081Z,99.99
2018-12-15T06:51:02.070Z,99.99
2018-12-15T06:52:02.060Z,99.99
2018-12-15T06:53:02.042Z,99.99
2018-12-15T06:54:02.035Z,99.99
2018-12-15T06:55:02.023Z,99.99
2018-12-15T06:56:02.010Z,99.99
2018-12-15T06:57:01.996Z,99.99
2018-12-15T06:58:01.984Z,99.99
2018-12-15T06:59:01.979Z,99.99
2018-12-15T07:00:01.961Z,99.99
2018-12-15T07:01:01.950Z,99.99
2018-12-15T07:02:01.934Z,99.99
2018-12-15T07:03:02.485Z,99.99
2018-12-15T07:04:02.128Z,99.99
2018-12-15T07:05:01.899Z,99.99
2018-12-15T07:06:01.887Z,99.99
2018-12-15T07:07:01.876Z,99.99
2018-12-15T07:08:01.866Z,99.99
2018-12-15T07:09:01.846Z,99.99
2018-12-15T07:10:01.839Z,99.99
2018-12-15T07:11:01.879Z,99.99
2018-12-15T07:12:01.815Z,99.99
2018-12-15T07:13:01.799Z,99.99
2018-12-15T07:14:01.790Z,99.99
2018-12-15T07:15:01.775Z,99.99
2018-12-15T07:16:01.764Z,99.99
2018-12-15T07:17:01.751Z,99.99
2018-12-15T07:18:01.743Z,99.99
2018-12-15T07:19:01.731Z,99.99
2018-12-15T07:20:01.721Z,99.99
2018-12-15T07:21:01.703Z,99.99
2018-12-15T07:22:01.692Z,99.99
2018-12-15T07:23:01.681Z,99.99
2018-12-15T07:24:01.667Z,99.99
2018-12-15T07:25:01.653Z,99.99
2018-12-15T07:26:01.640Z,99.99
2018-12-15T07:27:01.628Z,99.99
2018-12-15T07:28:01.615Z,99.99
2018-12-15T07:29:01.603Z,99.99
2018-12-15T07:30:01.595Z,99.99
2018-12-15T07:31:01.580Z,99.99
2018-12-15T07:32:01.571Z,99.99
2018-12-15T07:33:01.567Z,99.99
2018-12-15T07:34:01.547Z,99.99
2018-12-15T07:35:01.539Z,99.99
2018-12-15T07:36:01.522Z,99.99
2018-12-15T07:37:01.510Z,99.99
2018-12-15T07:38:01.497Z,99.99
2018-12-15T07:39:01.485Z,99.99
2018-12-15T07:40:01.475Z,99.99
2018-12-15T07:41:01.458Z,99.99
2018-12-15T07:42:01.445Z,99.99
2018-12-15T07:43:01.433Z,99.99
2018-12-15T07:44:01.435Z,99.99
2018-12-15T07:45:01.409Z,99.99
2018-12-15T07:46:01.400Z,99.99
2018-12-15T07:47:01.392Z,99.99
2018-12-15T07:48:01.374Z,99.99
2018-12-15T07:49:01.360Z,99.99
2018-12-15T07:50:01.349Z,99.99
2018-12-15T07:51:01.335Z,99.99
2018-12-15T07:52:01.326Z,99.99
2018-12-15T07:53:01.314Z,99.99
2018-12-15T07:54:01.300Z,99.99
2018-12-15T07:55:01.290Z,99.99
2018-12-15T07:56:01.274Z,99.99
2018-12-15T07:57:01.262Z,99.99
2018-12-15T07:58:01.251Z,99.99
2018-12-15T07:59:01.240Z,99.99
2018-12-15T08:00:01.228Z,99.99
2018-12-15T08:01:01.216Z,99.99
2018-12-15T08:02:01.203Z,99.99
2018-12-15T08:03:01.186Z,99.99
2018-12-15T08:04:01.173Z,99.99
2018-12-15T08:05:01.171Z,99.99
2018-12-15T08:06:01.151Z,99.99
2018-12-15T08:07:01.141Z,99.99
2018-12-15T08:08:01.127Z,99.99
2018-12-15T08:09:01.120Z,99.99
2018-12-15T08:10:01.106Z,99.99
2018-12-15T08:11:01.088Z,99.99
2018-12-15T08:12:01.082Z,99.99
2018-12-15T08:13:01.067Z,99.99
2018-12-15T08:14:01.053Z,99.99
2018-12-15T08:15:01.039Z,99.99
2018-12-15T08:16:01.029Z,99.99
2018-12-15T08:17:01.017Z,99.99
2018-12-15T08:18:01.009Z,99.99
2018-12-15T08:19:00.994Z,99.99
2018-12-15T08:20:00.983Z,99.99
2018-12-15T08:21:00.964Z,99.99
2018-12-15T08:22:00.954Z,99.99
2018-12-15T08:23:00.943Z,99.99
2018-12-15T08:24:00.931Z,99.99
2018-12-15T08:25:00.919Z,99.99
2018-12-15T08:26:00.907Z,99.99
2018-12-15T08:27:00.894Z,99.99
2018-12-15T08:28:00.882Z,99.99
2018-12-15T08:29:00.866Z,99.99
2018-12-15T08:30:00.858Z,99.99
2018-12-15T08:31:00.848Z,99.99
2018-12-15T08:32:00.833Z,99.99
2018-12-15T08:33:00.823Z,99.99
2018-12-15T08:34:00.809Z,99.99
2018-12-15T08:35:00.799Z,99.99
2018-12-15T08:36:00.786Z,99.99
2018-12-15T08:37:00.782Z,99.99
2018-12-15T08:38:00.763Z,99.99
2018-12-15T08:39:00.748Z,99.99
2018-12-15T08:40:00.737Z,99.99
2018-12-15T08:41:00.726Z,99.99
2018-12-15T08:42:00.712Z,99.99
2018-12-15T08:43:00.697Z,99.99
2018-12-15T08:44:00.690Z,99.99
2018-12-15T08:45:00.677Z,99.99
2018-12-15T08:46:00.666Z,99.99
2018-12-15T08:47:00.650Z,99.99
2018-12-15T08:48:00.645Z,99.99
2018-12-15T08:49:04.597Z,99.99
2018-12-15T08:50:00.616Z,99.99
2018-12-15T08:51:00.607Z,99.99
2018-12-15T08:52:00.596Z,99.99
2018-12-15T08:53:00.577Z,99.99
2018-12-15T08:54:00.568Z,99.99
2018-12-15T08:55:00.556Z,99.99
2018-12-15T08:56:00.549Z,99.99
2018-12-15T08:57:00.533Z,99.99
2018-12-15T08:58:00.519Z,99.99
2018-12-15T08:59:00.511Z,99.99
2018-12-15T09:00:00.496Z,99.99
2018-12-15T09:01:00.482Z,99.99
2018-12-15T09:02:00.475Z,99.99
2018-12-15T09:03:00.461Z,99.99
2018-12-15T09:04:00.449Z,99.99
2018-12-15T09:05:00.435Z,99.99
2018-12-15T09:06:00.425Z,99.99
2018-12-15T09:07:00.415Z,99.99
2018-12-15T09:08:00.401Z,99.99
2018-12-15T09:09:00.388Z,99.99
2018-12-15T09:10:00.373Z,99.99
2018-12-15T09:11:00.365Z,99.99
2018-12-15T09:12:00.351Z,99.99
2018-12-15T09:13:00.340Z,99.99
2018-12-15T09:14:00.324Z,99.99
2018-12-15T09:15:00.313Z,99.99
2018-12-15T09:16:00.307Z,99.99
2018-12-15T09:17:00.290Z,99.99
2018-12-15T09:18:00.281Z,99.99
2018-12-15T09:19:00.267Z,99.99
2018-12-15T09:20:00.256Z,99.99
2018-12-15T09:21:00.241Z,99.99
2018-12-15T09:22:00.230Z,99.99
2018-12-15T09:23:00.222Z,99.99
2018-12-15T09:24:00.208Z,99.99
2018-12-15T09:25:00.197Z,99.99
2018-12-15T09:26:00.181Z,99.99
2018-12-15T09:27:00.171Z,99.99
2018-12-15T09:28:00.157Z,99.99
2018-12-15T09:29:00.146Z,99.99
2018-12-15T09:30:00.145Z,99.99
2018-12-15T09:31:00.122Z,99.99
2018-12-15T09:32:00.110Z,99.99
2018-12-15T09:33:00.107Z,99.99
2018-12-15T09:34:00.087Z,99.99
2018-12-15T09:35:00.071Z,99.99
2018-12-15T09:36:00.062Z,99.99
2018-12-15T09:37:00.049Z,99.99
2018-12-15T09:38:00.036Z,99.99
2018-12-15T09:39:00.024Z,99.99
2018-12-15T09:40:00.016Z,99.99
2018-12-15T09:41:00.001Z,99.99
2018-12-15T09:41:59.990Z,99.99
2018-12-15T09:42:59.979Z,99.99
2018-12-15T09:43:59.971Z,99.99
2018-12-15T09:44:59.959Z,99.99
2018-12-15T09:45:59.949Z,99.99
2018-12-15T09:46:59.941Z,99.99
2018-12-15T09:47:59.922Z,99.99
2018-12-15T09:48:59.908Z,99.99
2018-12-15T09:49:59.899Z,99.99
2018-12-15T09:50:59.887Z,99.99
2018-12-15T09:51:59.874Z,99.99
2018-12-15T09:52:59.901Z,99.99
2018-12-15T09:53:59.849Z,99.99
2018-12-15T09:54:59.850Z,99.99
2018-12-15T09:55:59.842Z,99.99
2018-12-15T09:56:59.813Z,99.99
2018-12-15T09:57:59.802Z,99.99
2018-12-15T09:58:59.789Z,99.99
2018-12-15T09:59:59.780Z,99.99
2018-12-15T10:00:59.768Z,99.99
2018-12-15T10:01:59.754Z,99.99
2018-12-15T10:02:59.743Z,99.99
2018-12-15T10:03:59.730Z,99.99
2018-12-15T10:04:59.728Z,99.99
2018-12-15T10:05:59.710Z,99.99
2018-12-15T10:06:59.702Z,99.99
2018-12-15T10:07:59.681Z,99.99
2018-12-15T10:08:59.669Z,99.99
2018-12-15T10:09:59.661Z,99.99
2018-12-15T10:10:59.651Z,99.99
2018-12-15T10:11:59.637Z,99.99
2018-12-15T10:12:59.625Z,99.99
2018-12-15T10:13:59.612Z,99.99
2018-12-15T10:14:59.604Z,99.99
2018-12-15T10:15:59.587Z,99.99
2018-12-15T10:16:59.576Z,99.99
2018-12-15T10:17:59.570Z,99.99
2018-12-15T10:18:59.552Z,99.99
2018-12-15T10:19:59.542Z,99.99
2018-12-15T10:20:59.534Z,99.99
2018-12-15T10:21:59.520Z,99.99
2018-12-15T10:22:59.506Z,99.99
2018-12-15T10:23:59.493Z,99.99
2018-12-15T10:24:59.482Z,99.99
2018-12-15T10:25:59.468Z,99.99
2018-12-15T10:26:59.457Z,99.99
2018-12-15T10:27:59.452Z,99.99
2018-12-15T10:28:59.434Z,99.99
2018-12-15T10:29:59.423Z,99.99
2018-12-15T10:30:59.411Z,99.99
2018-12-15T10:31:59.399Z,99.99
2018-12-15T10:32:59.388Z,99.99
2018-12-15T10:33:59.375Z,99.99
2018-12-15T10:34:59.366Z,99.99
2018-12-15T10:35:59.354Z,99.99
2018-12-15T10:36:59.341Z,99.99
2018-12-15T10:37:59.332Z,99.99
2018-12-15T10:38:59.317Z,99.99
2018-12-15T10:39:59.305Z,99.99
2018-12-15T10:40:59.293Z,99.99
2018-12-15T10:41:59.281Z,99.99
2018-12-15T10:42:59.274Z,99.99
2018-12-15T10:43:59.266Z,99.99
2018-12-15T10:44:59.250Z,99.99
2018-12-15T10:45:59.235Z,99.99
2018-12-15T10:46:59.221Z,99.99
2018-12-15T10:47:59.216Z,99.99
2018-12-15T10:48:59.197Z,99.99
2018-12-15T10:49:59.190Z,99.99
2018-12-15T10:50:59.177Z,99.99
2018-12-15T10:51:59.165Z,99.99
2018-12-15T10:52:59.154Z,99.99
2018-12-15T10:53:59.143Z,99.99
2018-12-15T10:54:59.130Z,99.99
2018-12-15T10:55:59.116Z,99.99
2018-12-15T10:56:59.107Z,99.99
2018-12-15T10:57:59.097Z,99.99
2018-12-15T10:58:59.081Z,99.99
2018-12-15T10:59:59.071Z,99.99
2018-12-15T11:00:59.060Z,99.99
2018-12-15T11:01:59.050Z,99.99
2018-12-15T11:02:59.032Z,99.99
2018-12-15T11:04:00.860Z,99.99
2018-12-15T11:04:59.013Z,99.99
2018-12-15T11:05:58.999Z,99.99
2018-12-15T11:06:58.989Z,99.99
2018-12-15T11:07:58.981Z,99.99
2018-12-15T11:08:58.964Z,99.99
2018-12-15T11:09:58.951Z,99.99
2018-12-15T11:10:58.943Z,99.99
2018-12-15T11:11:58.933Z,99.99
2018-12-15T11:12:58.920Z,99.99
2018-12-15T11:13:58.911Z,99.99
2018-12-15T11:14:58.898Z,99.99
2018-12-15T11:15:58.883Z,99.99
2018-12-15T11:16:58.876Z,99.99
2018-12-15T11:17:58.869Z,99.99
2018-12-15T11:18:58.854Z,99.99
2018-12-15T11:19:58.839Z,99.99
2018-12-15T11:20:58.825Z,99.99
2018-12-15T11:21:58.815Z,99.99
2018-12-15T11:22:58.806Z,99.99
2018-12-15T11:23:58.799Z,99.99
2018-12-15T11:24:58.783Z,99.99
2018-12-15T11:25:58.771Z,99.99
2018-12-15T11:26:58.758Z,99.99
2018-12-15T11:27:58.748Z,99.99
2018-12-15T11:28:58.734Z,99.99
2018-12-15T11:29:58.724Z,99.99
2018-12-15T11:30:58.716Z,99.99
2018-12-15T11:31:58.703Z,99.99
2018-12-15T11:32:58.684Z,99.99
2018-12-15T11:33:58.678Z,99.99
2018-12-15T11:34:58.689Z,99.99
2018-12-15T11:35:59.420Z,99.99
2018-12-15T11:36:58.646Z,99.99
2018-12-15T11:37:58.630Z,99.99
2018-12-15T11:38:58.617Z,99.99
2018-12-15T11:39:58.610Z,99.99
2018-12-15T11:40:58.598Z,99.99
2018-12-15T11:41:58.585Z,99.99
2018-12-15T11:42:58.583Z,99.99
2018-12-15T11:43:58.564Z,99.99
2018-12-15T11:44:58.551Z,99.99
2018-12-15T11:45:58.540Z,99.99
2018-12-15T11:46:58.532Z,99.99
2018-12-15T11:47:58.516Z,99.99
2018-12-15T11:48:58.504Z,99.99
2018-12-15T11:49:58.492Z,99.99
2018-12-15T11:50:58.482Z,99.99
2018-12-15T11:51:58.470Z,99.99
2018-12-15T11:52:58.458Z,99.99
2018-12-15T11:53:58.452Z,99.99
2018-12-15T11:54:58.435Z,99.99
2018-12-15T11:55:58.424Z,99.99
2018-12-15T11:56:58.410Z,99.99
2018-12-15T11:57:58.399Z,99.99
2018-12-15T11:58:58.391Z,99.99
2018-12-15T11:59:58.376Z,99.99
2018-12-15T12:00:58.365Z,99.99
2018-12-15T12:01:58.356Z,99.99
2018-12-15T12:02:58.343Z,99.99
2018-12-15T12:03:58.332Z,99.99
2018-12-15T12:04:58.321Z,99.99
2018-12-15T12:05:58.309Z,99.99
2018-12-15T12:06:58.299Z,99.99
2018-12-15T12:07:58.286Z,99.99
2018-12-15T12:08:58.275Z,99.99
2018-12-15T12:09:58.267Z,99.99
2018-12-15T12:10:58.257Z,99.99
2018-12-15T12:11:58.240Z,99.99
2018-12-15T12:12:58.233Z,99.99
2018-12-15T12:14:00.487Z,99.99
2018-12-15T12:14:58.925Z,99.99
2018-12-15T12:15:58.202Z,99.99
2018-12-15T12:16:58.185Z,99.99
2018-12-15T12:17:58.171Z,99.99
2018-12-15T12:18:58.160Z,99.99
2018-12-15T12:19:58.156Z,99.99
2018-12-15T12:20:58.136Z,99.99
2018-12-15T12:21:58.127Z,99.99
2018-12-15T12:22:58.116Z,99.99
2018-12-15T12:23:58.100Z,99.99
2018-12-15T12:24:58.091Z,99.99
2018-12-15T12:25:58.079Z,99.99
2018-12-15T12:26:58.067Z,99.99
2018-12-15T12:27:58.056Z,99.99
2018-12-15T12:28:58.042Z,99.99
2018-12-15T12:29:58.033Z,99.99
2018-12-15T12:30:58.018Z,99.99
2018-12-15T12:31:58.012Z,99.99
2018-12-15T12:32:59.337Z,99.99
2018-12-15T12:33:57.985Z,99.99
2018-12-15T12:34:57.981Z,99.99
2018-12-15T12:35:57.966Z,99.99
2018-12-15T12:36:57.952Z,99.99
2018-12-15T12:37:57.940Z,99.99
2018-12-15T12:38:57.934Z,99.99
2018-12-15T12:39:57.917Z,99.99
2018-12-15T12:40:57.902Z,99.99
2018-12-15T12:41:57.892Z,99.99
2018-12-15T12:42:57.883Z,99.99
2018-12-15T12:43:57.872Z,99.99
2018-12-15T12:44:57.860Z,99.99
2018-12-15T12:45:57.853Z,99.99
2018-12-15T12:46:57.834Z,99.99
2018-12-15T12:47:57.832Z,99.99
2018-12-15T12:48:57.818Z,99.99
2018-12-15T12:49:57.803Z,99.99
2018-12-15T12:50:57.793Z,99.99
2018-12-15T12:51:57.783Z,99.99